Time;durP1;ratioP1;P1;durP2;ratioP2;P2;SDS_P1;SDS_P2;PMS_P1;PMS_P2;Temp;Humidity;BMP_temperature;BMP_pressure;BME280_temperature;BME280_humidity;BME280_pressure;Samples;Min_cycle;Max_cycle;Signal;HPM_P1;HPM_P2
2022/04/11 00:01:38;;;;;;;13.82;7.32;;;1.30;99.90;;;-0.03;87.45;97701.59;5071385;28;20512;-76
2022/04/11 00:04:04;;;;;;;12.97;7.53;;;1.30;99.90;;;-0.09;87.42;97693.69;5071963;28;20510;-76
2022/04/11 00:06:30;;;;;;;13.68;7.50;;;1.20;99.90;;;-0.08;87.52;97688.31;5076690;28;20417;-76
2022/04/11 00:08:55;;;;;;;16.42;8.75;;;1.20;99.90;;;-0.11;87.77;97696.47;5073114;28;20885;-76
2022/04/11 00:11:21;;;;;;;15.48;8.52;;;1.20;99.90;;;-0.12;87.93;97691.44;5063101;28;20969;-76
2022/04/11 00:13:47;;;;;;;12.67;8.07;;;1.20;99.90;;;-0.15;87.87;97684.78;5071181;28;20812;-76
2022/04/11 00:16:15;;;;;;;17.80;8.70;;;1.20;99.90;;;-0.22;87.86;97683.84;5071289;28;20396;-76
2022/04/11 00:18:41;;;;;;;16.52;8.90;;;1.10;99.90;;;-0.22;88.12;97689.06;5071368;28;20400;-76
2022/04/11 00:21:07;;;;;;;14.52;8.88;;;1.10;99.90;;;-0.28;87.96;97684.56;5070736;28;20735;-76
2022/04/11 00:23:32;;;;;;;17.50;9.35;;;1.10;99.90;;;-0.32;88.20;97688.50;5070987;28;20414;-76
2022/04/11 00:25:58;;;;;;;14.35;9.35;;;1.00;99.90;;;-0.32;88.58;97691.13;5074276;28;20407;-76
2022/04/11 00:28:24;;;;;;;16.57;10.10;;;1.00;99.90;;;-0.36;88.49;97687.22;5071033;28;20408;-76
2022/04/11 00:30:50;;;;;;;13.57;9.77;;;1.00;99.90;;;-0.36;88.94;97687.22;5070540;28;20399;-76
2022/04/11 00:33:17;;;;;;;18.33;10.65;;;1.00;99.90;;;-0.34;88.85;97679.25;5071102;28;20739;-76
2022/04/11 00:35:43;;;;;;;19.25;11.23;;;1.00;99.90;;;-0.40;89.13;97684.19;5071070;28;20404;-76
2022/04/11 00:38:09;;;;;;;16.43;10.17;;;0.90;99.90;;;-0.44;89.08;97682.91;5072404;28;20411;-77
2022/04/11 00:40:35;;;;;;;15.98;10.25;;;0.90;99.90;;;-0.46;89.43;97679.69;5070364;28;20407;-76
2022/04/11 00:43:01;;;;;;;18.87;10.43;;;0.90;99.90;;;-0.43;89.68;97673.31;5070792;28;20502;-76
2022/04/11 00:45:26;;;;;;;18.10;11.80;;;0.90;99.90;;;-0.51;89.43;97663.78;5070615;28;20431;-76
2022/04/11 00:47:52;;;;;;;14.20;9.27;;;0.80;99.90;;;-0.54;89.59;97665.94;5070933;28;20439;-75
2022/04/11 00:50:20;;;;;;;16.40;11.52;;;0.80;99.90;;;-0.56;89.86;97660.09;5071625;28;20431;-76
2022/04/11 00:52:50;;;;;;;14.52;9.80;;;0.80;99.90;;;-0.60;89.54;97661.44;5074801;28;20395;-76
2022/04/11 00:55:20;;;;;;;16.00;10.60;;;0.80;99.90;;;-0.65;89.59;97663.72;5071962;28;20403;-76
2022/04/11 00:57:47;;;;;;;19.98;12.38;;;0.70;99.90;;;-0.63;89.97;97659.97;5070662;28;20995;-76
2022/04/11 01:00:14;;;;;;;16.98;11.38;;;0.70;99.90;;;-0.59;90.50;97650.03;5070172;28;20435;-77
2022/04/11 01:02:40;;;;;;;20.20;11.52;;;0.70;99.90;;;-0.68;90.56;97653.69;5070547;28;20418;-76
2022/04/11 01:05:08;;;;;;;17.60;10.93;;;0.70;99.90;;;-0.72;90.17;97652.41;5070518;28;20400;-76
2022/04/11 01:07:36;;;;;;;21.65;10.95;;;0.60;99.90;;;-0.84;90.26;97660.63;5070588;28;20400;-76
2022/04/11 01:10:02;;;;;;;20.75;11.98;;;0.50;99.90;;;-0.91;90.17;97651.91;5072928;28;20867;-76
2022/04/11 01:12:28;;;;;;;16.42;11.88;;;0.40;99.90;;;-0.93;90.83;97658.22;5070056;28;20400;-77
2022/04/11 01:14:54;;;;;;;20.48;12.93;;;0.40;99.90;;;-0.96;90.80;97666.34;5070393;28;20460;-76
2022/04/11 01:17:20;;;;;;;20.57;12.10;;;0.40;99.90;;;-0.98;90.80;97663.97;5069902;28;20430;-76
2022/04/11 01:19:45;;;;;;;19.42;14.15;;;0.40;99.90;;;-0.92;91.12;97654.66;5070394;28;20399;-76
2022/04/11 01:22:13;;;;;;;16.77;12.20;;;0.40;99.90;;;-0.95;91.14;97658.41;5069835;28;20411;-76
2022/04/11 01:24:39;;;;;;;20.58;14.20;;;0.40;99.90;;;-0.93;91.09;97656.44;5070131;28;20407;-76
2022/04/11 01:27:05;;;;;;;18.35;14.38;;;0.40;99.90;;;-0.88;91.60;97656.72;5070216;28;20399;-76
2022/04/11 01:29:32;;;;;;;23.83;12.45;;;0.40;99.90;;;-0.90;91.33;97655.28;5070146;28;20408;-76
2022/04/11 01:31:58;;;;;;;20.23;13.07;;;0.50;99.90;;;-0.91;91.46;97645.88;5069788;28;20403;-76
2022/04/11 01:34:24;;;;;;;22.08;13.27;;;0.40;99.90;;;-0.91;91.38;97648.47;5077011;28;20753;-76
2022/04/11 01:36:50;;;;;;;19.43;13.20;;;0.40;99.90;;;-0.91;91.26;97648.47;5070020;28;20400;-76
2022/04/11 01:39:17;;;;;;;18.95;13.23;;;0.40;99.90;;;-0.92;91.30;97646.88;5071782;28;20916;-76
2022/04/11 01:41:43;;;;;;;25.27;17.77;;;0.40;99.90;;;-0.84;91.68;97644.22;5070895;28;20465;-76
2022/04/11 01:44:09;;;;;;;22.58;13.88;;;0.50;99.90;;;-0.86;91.55;97643.56;5070133;28;20411;-77
2022/04/11 01:46:34;;;;;;;18.88;13.27;;;0.50;99.90;;;-0.89;91.36;97644.72;5070124;28;20824;-76
2022/04/11 01:49:00;;;;;;;22.35;14.68;;;0.50;99.90;;;-0.80;91.49;97646.28;5069986;28;20408;-76
2022/04/11 01:51:26;;;;;;;20.20;14.55;;;0.50;99.90;;;-0.87;91.51;97647.97;5071380;28;20407;-76
2022/04/11 01:53:52;;;;;;;26.45;18.58;;;0.50;99.90;;;-0.75;91.52;97640.56;5069891;28;20450;-76
2022/04/11 01:56:19;;;;;;;24.23;15.50;;;0.50;99.90;;;-0.81;91.78;97631.66;5070051;28;20407;-76
2022/04/11 01:58:45;;;;;;;20.83;14.40;;;0.60;99.90;;;-0.77;91.76;97634.75;5051983;28;20837;-77
2022/04/11 02:01:17;;;;;;;21.65;14.90;;;0.60;99.90;;;-0.75;91.73;97637.19;5069396;28;20495;-76
2022/04/11 02:03:44;;;;;;;23.40;16.47;;;0.60;99.90;;;-0.72;91.79;97635.03;5071225;28;20419;-77
2022/04/11 02:06:10;;;;;;;25.60;14.90;;;0.60;99.90;;;-0.71;92.13;97634.03;5069997;28;20403;-76
2022/04/11 02:08:36;;;;;;;20.67;14.33;;;0.70;99.90;;;-0.63;92.25;97630.56;5069966;28;20445;-76
2022/04/11 02:11:02;;;;;;;22.15;14.13;;;0.70;99.90;;;-0.64;91.96;97640.16;5069500;28;20484;-76
2022/04/11 02:13:29;;;;;;;24.48;14.85;;;0.70;99.90;;;-0.60;92.17;97625.81;5069783;28;20434;-76
2022/04/11 02:15:55;;;;;;;23.08;13.88;;;0.70;99.90;;;-0.54;91.97;97621.72;5070029;28;20414;-76
2022/04/11 02:18:21;;;;;;;24.55;13.68;;;0.80;99.90;;;-0.53;91.88;97620.75;5069945;28;20396;-76
2022/04/11 02:20:47;;;;;;;22.90;14.55;;;0.80;99.90;;;-0.46;91.96;97613.88;5069365;28;20904;-76
2022/04/11 02:23:12;;;;;;;23.35;14.15;;;0.80;99.90;;;-0.42;91.92;97602.94;5069831;28;20466;-76
2022/04/11 02:25:40;;;;;;;19.47;12.97;;;0.90;99.90;;;-0.36;91.58;97606.59;5069884;28;20439;-76
2022/04/11 02:28:06;;;;;;;19.85;12.70;;;0.90;99.90;;;-0.32;91.49;97609.69;5076643;28;20400;-77
2022/04/11 02:30:34;;;;;;;19.63;12.88;;;1.00;99.90;;;-0.30;91.28;97603.28;5054879;28;20400;-77
2022/04/11 02:33:00;;;;;;;23.50;13.65;;;1.00;99.90;;;-0.30;91.18;97597.31;5078993;28;20422;-76
2022/04/11 02:35:26;;;;;;;18.27;12.13;;;1.00;99.90;;;-0.30;91.25;97594.72;5076414;28;20570;-77
2022/04/11 02:37:52;;;;;;;22.02;14.05;;;1.00;99.90;;;-0.21;91.58;97594.44;5074284;28;20396;-76
2022/04/11 02:40:19;;;;;;;20.35;12.77;;;1.10;99.90;;;-0.23;91.29;97601.63;5072909;28;20403;-76
2022/04/11 02:42:46;;;;;;;24.63;14.52;;;1.10;99.90;;;-0.22;91.52;97589.41;5073117;28;20777;-77
2022/04/11 02:45:14;;;;;;;18.88;12.43;;;1.10;99.90;;;-0.24;91.18;97587.00;5073161;28;20411;-76
2022/04/11 02:47:41;;;;;;;19.48;12.15;;;1.10;99.90;;;-0.21;91.18;97578.81;5073235;28;20737;-76
2022/04/11 02:50:09;;;;;;;24.30;14.32;;;1.10;99.90;;;-0.16;91.40;97578.31;5073030;28;20557;-76
2022/04/11 02:52:35;;;;;;;27.88;15.35;;;1.10;99.90;;;-0.15;91.16;97572.91;5055227;28;20396;-76
2022/04/11 02:55:02;;;;;;;20.20;13.95;;;1.10;99.90;;;-0.09;91.62;97568.81;5073130;28;20404;-76
2022/04/11 02:57:31;;;;;;;20.02;13.75;;;1.20;99.90;;;-0.12;91.17;97563.94;5072850;28;20434;-76
2022/04/11 02:59:57;;;;;;;22.30;13.73;;;1.20;99.90;;;-0.11;90.76;97568.97;5074807;28;20403;-76
2022/04/11 03:02:23;;;;;;;22.93;15.17;;;1.20;99.90;;;-0.09;90.73;97566.19;5054664;28;20416;-76
2022/04/11 03:04:50;;;;;;;21.83;13.73;;;1.20;99.90;;;-0.12;90.52;97558.75;5072893;28;20426;-76
2022/04/11 03:07:16;;;;;;;20.70;14.75;;;1.20;99.90;;;-0.18;90.56;97560.28;5054953;28;20407;-76
2022/04/11 03:09:42;;;;;;;19.48;15.35;;;1.10;99.90;;;-0.14;90.52;97550.31;5072790;28;20400;-76
2022/04/11 03:12:09;;;;;;;19.90;15.60;;;1.20;99.90;;;-0.07;90.51;97552.00;5072407;28;20697;-76
2022/04/11 03:14:35;;;;;;;23.48;14.90;;;1.20;99.90;;;-0.02;90.04;97554.09;5072394;28;20399;-77
2022/04/11 03:17:01;;;;;;;25.15;15.43;;;1.30;99.90;;;-0.05;89.95;97544.84;5074337;28;20406;-76
2022/04/11 03:19:27;;;;;;;24.88;15.32;;;1.30;99.90;;;-0.11;90.44;97548.16;5066076;28;20421;-76
2022/04/11 03:21:54;;;;;;;29.90;16.02;;;1.20;99.90;;;-0.11;90.24;97549.97;5086151;28;20852;-76
2022/04/11 03:24:20;;;;;;;23.03;16.27;;;1.20;99.90;;;-0.17;90.50;97540.28;5092441;28;20410;-76
2022/04/11 03:26:46;;;;;;;26.52;15.50;;;1.20;99.90;;;-0.24;90.60;97534.97;5092761;28;20447;-75
2022/04/11 03:29:12;;;;;;;22.87;15.57;;;1.10;99.90;;;-0.28;90.50;97530.31;5092518;28;20798;-76
2022/04/11 03:31:38;;;;;;;23.45;16.67;;;1.00;99.90;;;-0.32;90.66;97539.47;5090523;28;20409;-76
2022/04/11 03:34:04;;;;;;;19.40;15.27;;;1.00;99.90;;;-0.34;90.86;97531.84;5092491;28;20493;-76
2022/04/11 03:36:30;;;;;;;24.55;15.13;;;1.00;99.90;;;-0.30;90.87;97540.09;5086947;28;20406;-76
2022/04/11 03:38:57;;;;;;;20.58;14.10;;;1.00;99.90;;;-0.33;91.05;97538.66;5073297;28;20409;-76
2022/04/11 03:41:24;;;;;;;25.33;14.10;;;1.00;99.90;;;-0.35;91.08;97534.59;5092148;28;20398;-76
2022/04/11 03:43:50;;;;;;;23.20;16.65;;;1.00;99.90;;;-0.28;90.97;97532.91;5092232;28;20910;-76
2022/04/11 03:46:17;;;;;;;27.08;16.17;;;1.00;99.90;;;-0.29;91.20;97532.09;5092368;28;20402;-76
2022/04/11 03:48:42;;;;;;;21.00;13.13;;;1.00;99.90;;;-0.31;91.04;97528.88;5092221;28;20903;-76
2022/04/11 03:51:09;;;;;;;24.97;14.30;;;1.00;99.90;;;-0.28;91.11;97530.31;5091791;28;20429;-76
2022/04/11 03:53:35;;;;;;;20.17;13.93;;;1.00;99.90;;;-0.35;91.17;97539.81;5092037;28;20402;-76
2022/04/11 03:56:02;;;;;;;20.27;13.75;;;1.00;99.90;;;-0.35;91.56;97537.19;5092113;28;20402;-75
2022/04/11 03:58:28;;;;;;;17.87;12.73;;;0.90;99.90;;;-0.44;90.94;97529.47;5092060;28;20402;-76
2022/04/11 04:00:54;;;;;;;20.95;13.45;;;0.90;99.90;;;-0.51;91.02;97525.16;5073425;28;20441;-76
2022/04/11 04:03:20;;;;;;;24.13;13.90;;;0.80;99.90;;;-0.52;91.30;97534.75;5089303;28;20463;-76
2022/04/11 04:05:47;;;;;;;22.17;13.48;;;0.80;99.90;;;-0.53;90.87;97533.16;5088646;28;20772;-76
2022/04/11 04:08:17;;;;;;;19.98;12.85;;;0.80;99.90;;;-0.58;91.05;97527.69;5075569;28;20737;-76
2022/04/11 04:10:44;;;;;;;18.15;13.50;;;0.70;99.90;;;-0.54;91.16;97531.56;5073120;28;20441;-76
2022/04/11 04:13:11;;;;;;;20.92;13.73;;;0.80;99.90;;;-0.55;91.16;97531.72;5088796;28;20733;-76
2022/04/11 04:15:37;;;;;;;21.70;12.27;;;0.70;99.90;;;-0.63;91.19;97517.00;5091443;28;20929;-76
2022/04/11 04:18:04;;;;;;;24.83;12.80;;;0.70;99.90;;;-0.68;91.27;97524.53;5082255;28;20465;-75
2022/04/11 04:20:30;;;;;;;26.02;13.38;;;0.70;99.90;;;-0.69;91.26;97520.31;5091008;28;20408;-76
2022/04/11 04:22:56;;;;;;;20.85;12.80;;;0.60;99.90;;;-0.76;91.27;97514.22;5091602;28;20409;-76
2022/04/11 04:25:23;;;;;;;19.52;13.02;;;0.60;99.90;;;-0.80;91.26;97515.53;5111030;22;20950;-73
2022/04/11 04:27:49;;;;;;;24.45;13.18;;;0.50;99.90;;;-0.83;91.22;97500.31;4958747;28;20468;-73
2022/04/11 04:30:16;;;;;;;19.73;13.50;;;0.50;99.90;;;-0.89;91.28;97499.22;4967647;28;20427;-74
2022/04/11 04:32:42;;;;;;;21.53;13.53;;;0.50;99.90;;;-0.92;91.37;97503.97;4958498;28;20483;-74
2022/04/11 04:35:09;;;;;;;20.20;14.00;;;0.50;99.90;;;-0.94;91.42;97504.13;4960277;28;20487;-74
2022/04/11 04:37:35;;;;;;;26.08;15.45;;;0.40;99.90;;;-0.95;91.73;97502.50;4969878;28;20400;-74
2022/04/11 04:40:02;;;;;;;22.25;14.07;;;0.40;99.90;;;-1.00;91.63;97493.63;4969472;28;20409;-75
2022/04/11 04:42:28;;;;;;;25.02;15.57;;;0.40;99.90;;;-1.03;91.92;97504.38;4969329;28;20416;-74
2022/04/11 04:44:54;;;;;;;20.63;14.00;;;0.30;99.90;;;-1.02;91.86;97503.38;4969501;28;20419;-74
2022/04/11 04:47:22;;;;;;;25.63;13.73;;;0.30;99.90;;;-1.09;92.04;97503.28;4969420;28;20409;-74
2022/04/11 04:49:48;;;;;;;24.58;14.05;;;0.30;99.90;;;-1.06;91.98;97508.13;4965923;28;20434;-74
2022/04/11 04:52:14;;;;;;;21.17;13.73;;;0.30;99.90;;;-1.17;91.61;97504.16;4962085;28;20400;-74
2022/04/11 04:54:40;;;;;;;20.83;14.52;;;0.20;99.90;;;-1.19;91.88;97513.91;4960789;28;20457;-74
2022/04/11 04:57:07;;;;;;;18.70;13.50;;;0.10;99.90;;;-1.20;92.16;97520.06;4960439;28;20410;-73
2022/04/11 04:59:33;;;;;;;20.80;14.88;;;0.10;99.90;;;-1.23;92.03;97515.25;4969505;28;20403;-73
2022/04/11 05:01:59;;;;;;;24.58;15.50;;;0.10;99.90;;;-1.24;92.35;97513.63;4980639;28;20420;-73
2022/04/11 05:04:26;;;;;;;26.48;17.08;;;0.10;99.90;;;-1.20;92.34;97516.66;4962805;28;20431;-74
2022/04/11 05:06:52;;;;;;;21.10;14.77;;;0.10;99.90;;;-1.21;92.63;97509.88;4969313;28;20423;-74
2022/04/11 05:09:18;;;;;;;23.98;14.93;;;0.20;99.90;;;-1.20;92.33;97512.28;4969073;28;20415;-73
2022/04/11 05:11:45;;;;;;;26.60;15.25;;;0.20;99.90;;;-1.19;92.50;97513.91;4966223;28;20415;-73
2022/04/11 05:14:11;;;;;;;23.67;15.35;;;0.20;99.90;;;-1.23;92.20;97515.25;4960847;28;20423;-74
2022/04/11 05:16:37;;;;;;;23.00;14.07;;;0.20;99.90;;;-1.24;92.14;97515.41;4969104;28;20420;-74
2022/04/11 05:19:04;;;;;;;26.27;18.65;;;0.10;99.90;;;-1.14;92.50;97515.19;4969004;28;20835;-73
2022/04/11 05:21:31;;;;;;;26.95;16.27;;;0.10;99.90;;;-1.11;92.55;97510.44;4968684;28;20435;-73
2022/04/11 05:23:57;;;;;;;25.75;16.15;;;0.20;99.90;;;-1.11;92.60;97515.63;4968740;28;20435;-74
2022/04/11 05:26:23;;;;;;;22.73;15.40;;;0.20;99.90;;;-1.03;92.83;97515.56;4964917;28;20503;-73
2022/04/11 05:28:49;;;;;;;23.20;14.55;;;0.20;99.90;;;-1.02;92.40;97514.59;4960897;28;20420;-72
2022/04/11 05:31:16;;;;;;;23.50;14.30;;;0.30;99.90;;;-0.98;92.65;97515.88;4968411;28;20440;-73
2022/04/11 05:33:44;;;;;;;22.90;16.13;;;0.30;99.90;;;-0.88;92.33;97511.22;4968769;28;20917;-73
2022/04/11 05:36:10;;;;;;;21.55;14.68;;;0.40;99.90;;;-0.82;92.35;97510.50;4968895;28;20465;-75
2022/04/11 05:38:38;;;;;;;23.42;15.77;;;0.50;99.90;;;-0.56;92.15;97507.50;4962351;28;20451;-73
2022/04/11 05:41:04;;;;;;;23.48;14.60;;;0.60;99.90;;;-0.49;92.03;97518.00;4963948;28;20419;-73
2022/04/11 05:43:30;;;;;;;21.80;13.13;;;0.80;99.90;;;-0.44;91.53;97515.66;4957323;28;20430;-73
2022/04/11 05:45:55;;;;;;;17.30;12.20;;;0.80;99.90;;;-0.24;91.03;97506.38;4958343;28;20422;-72
2022/04/11 05:48:22;;;;;;;19.77;14.63;;;1.00;99.90;;;-0.11;91.05;97501.34;4968712;28;20454;-70
2022/04/11 05:50:47;;;;;;;23.13;12.05;;;1.10;99.90;;;0.41;88.37;97502.13;4983141;28;20818;-72
2022/04/11 05:53:13;;;;;;;18.55;13.38;;;1.50;99.90;;;0.42;88.67;97503.75;4958746;28;20495;-70
2022/04/11 05:55:40;;;;;;;18.45;11.82;;;1.60;99.90;;;0.36;88.72;97500.91;4960382;28;20478;-70
2022/04/11 05:58:06;;;;;;;16.02;12.02;;;1.70;99.90;;;0.36;89.32;97506.13;4950042;28;20414;-72
2022/04/11 06:00:32;;;;;;;21.55;13.75;;;1.60;99.90;;;0.44;90.05;97510.41;4948876;28;20417;-71
2022/04/11 06:02:59;;;;;;;19.58;12.40;;;1.60;99.90;;;0.43;89.79;97506.19;4951392;28;20436;-72
2022/04/11 06:05:25;;;;;;;22.33;13.90;;;1.70;99.90;;;0.49;89.96;97510.66;4952472;29;20413;-71
2022/04/11 06:07:51;;;;;;;17.25;12.20;;;1.70;99.90;;;0.58;89.33;97511.34;4952570;28;20409;-71
2022/04/11 06:10:17;;;;;;;19.03;12.40;;;1.80;99.90;;;0.95;87.76;97511.09;4952179;28;20417;-71
2022/04/11 06:12:44;;;;;;;19.08;10.07;;;2.10;99.90;;;1.58;83.13;97511.97;4952591;28;21025;-71
2022/04/11 06:15:11;;;;;;;17.80;10.15;;;2.40;99.90;;;1.96;79.50;97504.56;4952471;28;20409;-71
2022/04/11 06:17:37;;;;;;;15.10;10.15;;;2.90;99.90;;;2.17;77.88;97508.91;4952417;28;20472;-71
2022/04/11 06:20:05;;;;;;;15.30;9.20;;;3.30;99.90;;;2.39;76.35;97499.94;4952153;28;20504;-70
2022/04/11 06:22:36;;;;;;;17.75;9.07;;;3.50;99.90;;;2.60;76.82;97506.81;4954038;28;20416;-71
2022/04/11 06:25:05;;;;;;;13.52;8.32;;;3.70;99.90;;;2.75;74.40;97506.66;4963332;28;20434;-72
2022/04/11 06:27:32;;;;;;;12.90;8.75;;;3.90;99.90;;;2.94;73.42;97511.09;4952202;28;20477;-71
2022/04/11 06:29:59;;;;;;;15.52;8.63;;;4.10;99.90;;;2.96;74.04;97504.66;4947897;28;20410;-72
2022/04/11 06:32:26;;;;;;;13.57;8.50;;;4.00;99.90;;;3.16;72.61;97502.06;4951901;29;20409;-70
2022/04/11 06:34:52;;;;;;;17.10;8.80;;;4.20;99.20;;;3.40;70.55;97500.63;4938952;28;20412;-69
2022/04/11 06:37:18;;;;;;;12.07;8.23;;;4.40;97.00;;;3.44;70.41;97504.47;4932818;29;20412;-71
2022/04/11 06:39:44;;;;;;;13.77;8.30;;;4.50;97.10;;;3.47;70.81;97504.88;4934445;28;20927;-70
2022/04/11 06:42:10;;;;;;;14.97;7.93;;;4.60;97.20;;;3.79;68.59;97508.44;4968440;28;20867;-68
2022/04/11 06:44:38;;;;;;;11.18;7.93;;;4.80;95.20;;;3.90;68.90;97507.03;4963702;28;20971;-69
2022/04/11 06:47:06;;;;;;;11.02;7.13;;;4.90;95.10;;;3.98;67.72;97500.75;4949801;28;20420;-70
2022/04/11 06:49:32;;;;;;;14.15;8.23;;;5.00;93.90;;;3.92;69.81;97498.94;4954486;28;20412;-68
2022/04/11 06:51:58;;;;;;;15.15;8.15;;;5.10;95.60;;;4.03;68.15;97499.13;4964154;28;20478;-69
2022/04/11 06:54:24;;;;;;;11.50;7.57;;;5.00;94.40;;;4.11;67.18;97501.50;4945062;28;20411;-69
2022/04/11 06:56:50;;;;;;;14.68;7.70;;;5.20;93.80;;;4.01;69.37;97495.09;4938991;28;20444;-69
2022/04/11 06:59:16;;;;;;;15.57;7.40;;;5.10;95.30;;;4.21;67.38;97490.59;4945267;28;20460;-69
2022/04/11 07:01:42;;;;;;;16.70;7.75;;;5.20;93.90;;;4.03;70.66;97495.69;4948049;28;20786;-69
2022/04/11 07:04:09;;;;;;;14.25;7.70;;;5.20;97.00;;;4.17;69.00;97497.25;4948165;28;20459;-70
2022/04/11 07:06:35;;;;;;;14.55;7.88;;;5.20;95.80;;;4.23;68.28;97499.03;4949645;28;20410;-69
2022/04/11 07:09:01;;;;;;;13.00;7.20;;;5.20;95.00;;;4.26;68.72;97493.41;4948940;28;20501;-71
2022/04/11 07:11:27;;;;;;;14.18;7.05;;;5.30;95.30;;;4.24;69.19;97498.84;4955680;28;20440;-69
2022/04/11 07:13:53;;;;;;;13.57;7.13;;;5.30;96.00;;;4.38;69.21;97501.38;4952844;28;20411;-70
2022/04/11 07:16:19;;;;;;;11.40;7.93;;;5.40;95.50;;;4.37;71.66;97508.44;4959322;28;20416;-70
2022/04/11 07:18:44;;;;;;;13.37;7.47;;;5.40;97.60;;;4.41;69.14;97509.66;4962695;28;20487;-70
2022/04/11 07:21:12;;;;;;;13.07;7.68;;;5.50;96.80;;;4.42;69.99;97506.03;4985096;28;20902;-70
2022/04/11 07:23:37;;;;;;;15.53;8.47;;;5.50;96.50;;;4.46;71.42;97503.78;4962073;28;20473;-69
2022/04/11 07:26:03;;;;;;;14.23;7.40;;;5.50;97.70;;;4.55;71.33;97497.28;4962839;28;20902;-69
2022/04/11 07:28:29;;;;;;;15.75;8.90;;;5.60;98.00;;;4.59;71.69;97503.69;4952717;28;20462;-69
2022/04/11 07:30:55;;;;;;;11.45;7.72;;;5.60;98.20;;;4.67;71.92;97503.47;4958951;28;20480;-69
2022/04/11 07:33:21;;;;;;;18.10;8.18;;;5.70;98.50;;;4.73;69.81;97497.41;4950832;28;20402;-69
2022/04/11 07:35:47;;;;;;;14.33;8.23;;;5.80;96.90;;;4.81;71.45;97496.34;4950728;28;20529;-69
2022/04/11 07:38:14;;;;;;;10.32;7.35;;;5.80;98.00;;;4.92;70.05;97498.28;4950801;28;20417;-70
2022/04/11 07:40:40;;;;;;;17.10;7.63;;;5.90;97.00;;;5.13;68.36;97504.97;4947820;28;20475;-69
2022/04/11 07:43:06;;;;;;;14.32;7.40;;;6.10;95.50;;;5.19;69.73;97501.53;4946967;29;20521;-69
2022/04/11 07:45:32;;;;;;;16.00;8.90;;;6.20;96.30;;;5.33;67.93;97498.59;4950997;28;20413;-70
2022/04/11 07:47:58;;;;;;;15.13;8.00;;;6.30;95.10;;;5.31;67.06;97495.34;4953480;28;20842;-69
2022/04/11 07:50:24;;;;;;;12.53;7.97;;;6.40;94.80;;;5.44;68.59;97507.56;4950117;29;20422;-69
2022/04/11 07:52:50;;;;;;;16.03;8.13;;;6.40;95.50;;;5.52;66.70;97509.09;4945803;28;20416;-69
2022/04/11 07:55:17;;;;;;;13.38;7.15;;;6.50;94.40;;;5.58;68.26;97506.41;4931878;29;20474;-69
2022/04/11 07:57:43;;;;;;;13.93;7.07;;;6.60;95.10;;;5.66;67.80;97502.72;4931709;28;20410;-69
2022/04/11 08:00:11;;;;;;;15.50;7.90;;;6.70;94.70;;;5.84;66.07;97500.94;4931048;28;20901;-68
2022/04/11 08:02:37;;;;;;;15.23;7.15;;;6.80;93.60;;;5.84;65.91;97494.88;4938849;28;20418;-70
2022/04/11 08:05:05;;;;;;;10.98;5.93;;;6.90;93.50;;;6.06;60.20;97501.31;4958508;28;20464;-69
2022/04/11 08:07:34;;;;;;;10.60;6.03;;;7.00;87.50;;;6.35;62.56;97494.50;4957540;28;20422;-68
2022/04/11 08:10:01;;;;;;;13.13;6.03;;;7.30;88.90;;;6.36;63.70;97495.31;4960117;28;20417;-69
2022/04/11 08:12:28;;;;;;;10.73;5.85;;;7.30;90.60;;;6.51;58.69;97495.72;4961553;28;20401;-69
2022/04/11 08:14:54;;;;;;;8.32;5.18;;;7.40;84.20;;;6.74;54.58;97492.41;4957335;28;20895;-68
2022/04/11 08:17:20;;;;;;;12.33;5.33;;;7.60;75.80;;;6.74;61.32;97492.41;4961471;28;20459;-68
2022/04/11 08:19:46;;;;;;;10.68;5.45;;;7.70;85.20;;;6.83;59.80;97488.44;4960858;28;20473;-68
2022/04/11 08:22:12;;;;;;;7.70;4.75;;;7.80;86.00;;;6.87;57.43;97489.56;4968448;28;20400;-69
2022/04/11 08:24:38;;;;;;;11.95;4.88;;;7.80;80.70;;;7.05;56.51;97491.34;4969323;28;20502;-69
2022/04/11 08:27:04;;;;;;;7.88;4.63;;;8.00;78.50;;;7.08;58.77;97493.50;4969751;28;20405;-68
2022/04/11 08:29:31;;;;;;;10.48;4.43;;;8.00;82.10;;;7.16;58.00;97496.63;4969703;28;20432;-68
2022/04/11 08:31:57;;;;;;;9.95;4.50;;;8.10;79.50;;;7.20;59.39;97496.97;4969381;28;20400;-69
2022/04/11 08:34:23;;;;;;;9.02;4.60;;;8.20;81.50;;;7.36;56.95;97496.31;4969519;28;20818;-68
2022/04/11 08:36:49;;;;;;;8.88;4.20;;;8.20;78.30;;;7.51;55.07;97493.25;4969817;28;20919;-68
2022/04/11 08:39:16;;;;;;;8.20;4.63;;;8.30;75.80;;;7.56;54.71;97491.50;4969600;28;20436;-67
2022/04/11 08:41:42;;;;;;;8.57;4.72;;;8.40;76.50;;;7.64;52.59;97488.53;4969249;28;20491;-68
2022/04/11 08:44:08;;;;;;;9.87;4.73;;;8.50;72.80;;;7.75;53.49;97492.19;4969327;28;20473;-68
2022/04/11 08:46:36;;;;;;;8.00;4.60;;;8.60;72.40;;;7.87;55.74;97489.56;4969530;28;20491;-68
2022/04/11 08:49:04;;;;;;;7.43;4.40;;;8.70;75.90;;;7.90;57.40;97494.34;4969361;28;20501;-68
2022/04/11 08:51:33;;;;;;;9.10;4.78;;;8.80;78.30;;;8.01;56.94;97489.06;4969145;28;20409;-68
2022/04/11 08:54:01;;;;;;;10.80;4.53;;;8.90;77.70;;;8.19;52.38;97487.34;4969388;28;20483;-68
2022/04/11 08:56:27;;;;;;;8.75;4.68;;;9.00;72.10;;;8.33;50.58;97486.06;4969364;28;20496;-68
2022/04/11 08:58:53;;;;;;;7.35;4.45;;;9.20;69.70;;;8.47;50.78;97492.66;4969368;28;20409;-68
2022/04/11 09:01:20;;;;;;;9.77;4.25;;;9.30;69.40;;;8.53;52.84;97487.25;4968929;28;20444;-69
2022/04/11 09:03:47;;;;;;;6.43;4.28;;;9.40;71.40;;;8.59;48.88;97479.41;4969127;28;20786;-70
2022/04/11 09:06:15;;;;;;;8.38;4.30;;;9.50;65.20;;;8.70;52.62;97474.09;4969264;28;20488;-69
2022/04/11 09:08:42;;;;;;;6.43;4.20;;;9.60;69.30;;;8.76;49.31;97485.53;4969223;28;20450;-69
2022/04/11 09:11:09;;;;;;;5.47;3.90;;;9.70;65.30;;;8.81;48.38;97475.06;4968763;28;20439;-69
2022/04/11 09:13:47;;;;;;;9.50;4.80;;;9.70;65.40;;;8.82;48.54;97472.19;4969161;28;20465;-69
2022/04/11 09:16:13;;;;;;;8.20;4.13;;;9.70;63.50;;;8.95;47.77;97475.59;4969194;28;20444;-69
2022/04/11 09:18:50;;;;;;;6.28;4.03;;;9.80;63.50;;;9.12;51.10;97473.75;4969129;28;20893;-69
2022/04/11 09:21:17;;;;;;;7.20;3.88;;;9.90;68.50;;;9.31;52.25;97468.03;4968708;28;20885;-70
2022/04/11 09:23:43;;;;;;;6.60;3.95;;;10.10;70.20;;;9.61;50.91;97464.22;4968931;28;20424;-70
2022/04/11 09:26:21;;;;;;;4.53;3.22;;;10.30;69.10;;;9.91;46.05;97463.84;4983852;28;20944;-70
2022/04/11 09:29:01;;;;;;;4.78;3.58;;;10.60;61.60;;;10.24;49.39;97458.47;4968989;28;20487;-69
2022/04/11 09:31:28;;;;;;;5.43;3.35;;;10.90;65.00;;;10.46;49.66;97466.38;4968523;28;20909;-69
2022/04/11 09:33:55;;;;;;;4.88;3.13;;;11.10;67.10;;;10.65;49.51;97458.91;4968897;28;20450;-70
2022/04/11 09:36:21;;;;;;;5.97;3.70;;;11.30;66.30;;;11.37;44.93;97466.44;4968201;28;20408;-69
2022/04/11 09:39:00;;;;;;;5.10;3.45;;;11.60;60.80;;;11.51;45.73;97449.84;4968672;28;20423;-68
2022/04/11 09:41:29;;;;;;;6.78;2.70;;;12.00;60.60;;;12.18;44.61;97464.31;4968552;28;20535;-69
2022/04/11 09:43:56;;;;;;;6.03;3.03;;;12.40;60.50;;;12.63;46.13;97453.81;4968936;28;20746;-68
2022/04/11 09:46:23;;;;;;;7.28;2.85;;;12.90;61.90;;;13.55;41.49;97447.53;4968714;28;20405;-68
2022/04/11 09:48:52;;;;;;;8.18;3.03;;;13.60;57.20;;;14.50;39.28;97444.88;4968807;28;20408;-68
2022/04/11 09:51:19;;;;;;;5.80;2.45;;;14.40;54.90;;;17.72;35.94;97440.69;4968414;28;20400;-68
2022/04/11 09:53:46;;;;;;;4.75;2.58;;;15.90;53.50;;;21.30;26.38;97441.19;4968506;28;20484;-69
2022/04/11 09:56:12;;;;;;;3.28;1.92;;;19.50;40.80;;;23.41;21.44;97436.47;4968667;28;20405;-68
2022/04/11 09:58:40;;;;;;;5.83;2.23;;;22.40;33.00;;;22.94;20.06;97425.13;4968617;28;20415;-68
2022/04/11 10:01:07;;;;;;;5.35;2.72;;;22.80;28.60;;;22.49;20.71;97431.13;4968214;28;20467;-69
2022/04/11 10:03:33;;;;;;;4.72;2.20;;;22.80;27.80;;;24.67;21.82;97427.47;4968461;28;20455;-69
2022/04/11 10:05:59;;;;;;;6.63;3.00;;;24.40;32.90;;;22.14;23.31;97417.03;4968575;28;20487;-68
2022/04/11 10:08:27;;;;;;;5.85;2.63;;;23.40;29.70;;;21.11;24.33;97422.69;4968454;28;20495;-69
2022/04/11 10:10:55;;;;;;;4.75;2.20;;;21.50;32.60;;;23.82;19.71;97422.09;4967940;28;20461;-69
2022/04/11 10:13:22;;;;;;;6.50;2.40;;;22.40;30.60;;;25.77;21.55;97423.28;4968332;28;20412;-69
2022/04/11 10:15:49;;;;;;;6.43;2.53;;;24.40;30.60;;;27.24;20.42;97409.94;4966872;28;20416;-69